sensor_id;sensor_type;location;lat;lon;timestamp;pressure;altitude;pressure_sealevel;temperature;humidity
7433;BME280;32233;49.500;7.764;2023-03-20T00:01:15;98710.84;;;5.68;100.00
7433;BME280;32233;49.500;7.764;2023-03-20T00:03:42;98721.97;;;5.79;100.00
7433;BME280;32233;49.500;7.764;2023-03-20T00:06:16;98725.41;;;5.71;100.00
7433;BME280;32233;49.500;7.764;2023-03-20T00:08:43;98724.78;;;5.77;100.00
7433;BME280;32233;49.500;7.764;2023-03-20T00:13:53;98724.50;;;5.97;100.00
7433;BME280;32233;49.500;7.764;2023-03-20T00:16:22;98724.63;;;5.95;100.00
7433;BME280;32233;49.500;7.764;2023-03-20T00:18:49;98723.81;;;6.03;100.00
7433;BME280;32233;49.500;7.764;2023-03-20T00:21:19;98720.56;;;6.01;100.00
7433;BME280;32233;49.500;7.764;2023-03-20T00:23:45;98724.81;;;5.93;100.00
7433;BME280;32233;49.500;7.764;2023-03-20T00:26:14;98728.56;;;6.15;100.00
7433;BME280;32233;49.500;7.764;2023-03-20T00:28:44;98727.41;;;6.18;100.00
7433;BME280;32233;49.500;7.764;2023-03-20T00:31:24;98728.06;;;6.12;100.00
7433;BME280;32233;49.500;7.764;2023-03-20T00:33:53;98722.81;;;6.12;100.00
7433;BME280;32233;49.500;7.764;2023-03-20T00:36:21;98728.06;;;6.20;100.00
7433;BME280;32233;49.500;7.764;2023-03-20T00:38:49;98730.88;;;6.10;100.00
7433;BME280;32233;49.500;7.764;2023-03-20T00:41:27;98732.50;;;6.03;100.00
7433;BME280;32233;49.500;7.764;2023-03-20T00:46:24;98740.38;;;6.11;100.00
7433;BME280;32233;49.500;7.764;2023-03-20T00:48:52;98742.34;;;6.17;100.00
7433;BME280;32233;49.500;7.764;2023-03-20T00:51:18;98737.91;;;6.26;100.00
7433;BME280;32233;49.500;7.764;2023-03-20T00:53:45;98729.25;;;6.01;100.00
7433;BME280;32233;49.500;7.764;2023-03-20T00:56:27;98729.72;;;5.97;100.00
7433;BME280;32233;49.500;7.764;2023-03-20T00:58:56;98731.03;;;6.09;100.00
7433;BME280;32233;49.500;7.764;2023-03-20T01:01:23;98734.78;;;6.23;100.00
7433;BME280;32233;49.500;7.764;2023-03-20T01:03:50;98738.38;;;6.38;100.00
7433;BME280;32233;49.500;7.764;2023-03-20T01:06:17;98741.59;;;6.56;100.00
7433;BME280;32233;49.500;7.764;2023-03-20T01:08:45;98741.59;;;6.64;100.00
7433;BME280;32233;49.500;7.764;2023-03-20T01:11:15;98745.22;;;6.55;100.00
7433;BME280;32233;49.500;7.764;2023-03-20T01:13:47;98746.03;;;6.64;100.00
7433;BME280;32233;49.500;7.764;2023-03-20T01:16:20;98746.53;;;6.59;100.00
7433;BME280;32233;49.500;7.764;2023-03-20T01:18:48;98747.00;;;6.71;100.00
7433;BME280;32233;49.500;7.764;2023-03-20T01:21:15;98752.91;;;6.65;100.00
7433;BME280;32233;49.500;7.764;2023-03-20T01:23:42;98750.00;;;6.52;100.00
7433;BME280;32233;49.500;7.764;2023-03-20T01:26:21;98757.69;;;6.61;100.00
7433;BME280;32233;49.500;7.764;2023-03-20T01:28:49;98747.63;;;6.73;100.00
7433;BME280;32233;49.500;7.764;2023-03-20T01:31:17;98764.72;;;6.69;100.00
7433;BME280;32233;49.500;7.764;2023-03-20T01:33:44;98765.41;;;6.55;100.00
7433;BME280;32233;49.500;7.764;2023-03-20T01:36:13;98765.25;;;6.48;100.00
7433;BME280;32233;49.500;7.764;2023-03-20T01:38:41;98765.13;;;6.33;100.00
7433;BME280;32233;49.500;7.764;2023-03-20T01:41:16;98760.53;;;6.35;100.00
7433;BME280;32233;49.500;7.764;2023-03-20T01:43:44;98759.69;;;6.51;100.00
7433;BME280;32233;49.500;7.764;2023-03-20T01:46:19;98767.75;;;6.50;100.00
7433;BME280;32233;49.500;7.764;2023-03-20T01:51:20;98757.25;;;6.41;100.00
7433;BME280;32233;49.500;7.764;2023-03-20T01:53:53;98755.94;;;6.29;100.00
7433;BME280;32233;49.500;7.764;2023-03-20T01:56:20;98760.84;;;6.24;100.00
7433;BME280;32233;49.500;7.764;2023-03-20T01:58:53;98764.47;;;6.23;100.00
7433;BME280;32233;49.500;7.764;2023-03-20T02:01:23;98770.91;;;6.20;100.00
7433;BME280;32233;49.500;7.764;2023-03-20T02:03:51;98773.03;;;6.17;100.00
7433;BME280;32233;49.500;7.764;2023-03-20T02:06:44;98761.34;;;6.19;100.00
7433;BME280;32233;49.500;7.764;2023-03-20T02:09:14;98761.84;;;6.31;100.00
7433;BME280;32233;49.500;7.764;2023-03-20T02:11:44;98764.94;;;6.43;100.00
7433;BME280;32233;49.500;7.764;2023-03-20T02:14:12;98762.59;;;6.64;100.00
7433;BME280;32233;49.500;7.764;2023-03-20T02:16:52;98772.75;;;6.76;100.00
7433;BME280;32233;49.500;7.764;2023-03-20T02:19:30;98774.88;;;6.72;100.00
7433;BME280;32233;49.500;7.764;2023-03-20T02:22:21;98771.44;;;6.80;100.00
7433;BME280;32233;49.500;7.764;2023-03-20T02:25:06;98780.13;;;6.80;100.00
7433;BME280;32233;49.500;7.764;2023-03-20T02:30:32;98771.41;;;6.88;100.00
7433;BME280;32233;49.500;7.764;2023-03-20T02:42:42;98777.22;;;7.14;100.00
7433;BME280;32233;49.500;7.764;2023-03-20T02:45:42;98783.66;;;7.04;100.00
7433;BME280;32233;49.500;7.764;2023-03-20T02:48:38;98773.31;;;7.10;100.00
7433;BME280;32233;49.500;7.764;2023-03-20T02:54:47;98776.03;;;7.17;100.00
7433;BME280;32233;49.500;7.764;2023-03-20T02:57:01;98762.75;;;7.18;100.00
7433;BME280;32233;49.500;7.764;2023-03-20T02:59:50;98757.19;;;7.05;100.00
7433;BME280;32233;49.500;7.764;2023-03-20T03:02:30;98759.03;;;6.97;100.00
7433;BME280;32233;49.500;7.764;2023-03-20T03:05:03;98755.91;;;7.01;100.00
7433;BME280;32233;49.500;7.764;2023-03-20T03:07:32;98750.22;;;6.81;100.00
7433;BME280;32233;49.500;7.764;2023-03-20T03:10:22;98745.69;;;6.67;100.00
7433;BME280;32233;49.500;7.764;2023-03-20T03:12:48;98746.66;;;6.74;100.00
7433;BME280;32233;49.500;7.764;2023-03-20T03:15:26;98740.94;;;6.62;100.00
7433;BME280;32233;49.500;7.764;2023-03-20T03:17:56;98746.78;;;6.81;100.00
7433;BME280;32233;49.500;7.764;2023-03-20T03:20:28;98742.38;;;6.73;100.00
7433;BME280;32233;49.500;7.764;2023-03-20T03:22:56;98745.50;;;6.68;100.00
7433;BME280;32233;49.500;7.764;2023-03-20T03:25:28;98745.88;;;6.57;100.00
7433;BME280;32233;49.500;7.764;2023-03-20T03:28:37;98747.31;;;6.68;100.00
7433;BME280;32233;49.500;7.764;2023-03-20T03:31:08;98750.72;;;6.77;100.00
7433;BME280;32233;49.500;7.764;2023-03-20T03:33:38;98755.94;;;6.93;100.00
7433;BME280;32233;49.500;7.764;2023-03-20T03:41:39;98763.41;;;7.12;100.00
7433;BME280;32233;49.500;7.764;2023-03-20T03:44:22;98765.53;;;7.17;100.00
7433;BME280;32233;49.500;7.764;2023-03-20T03:46:55;98765.88;;;7.14;100.00
7433;BME280;32233;49.500;7.764;2023-03-20T03:49:29;98765.66;;;7.24;100.00
7433;BME280;32233;49.500;7.764;2023-03-20T03:52:01;98771.25;;;7.20;100.00
7433;BME280;32233;49.500;7.764;2023-03-20T03:54:46;98770.06;;;7.31;100.00
7433;BME280;32233;49.500;7.764;2023-03-20T03:57:59;98768.06;;;7.33;100.00
7433;BME280;32233;49.500;7.764;2023-03-20T04:00:26;98768.59;;;7.29;100.00
7433;BME280;32233;49.500;7.764;2023-03-20T04:02:56;98775.38;;;7.23;100.00
7433;BME280;32233;49.500;7.764;2023-03-20T04:05:27;98768.97;;;7.17;100.00
7433;BME280;32233;49.500;7.764;2023-03-20T04:07:58;98774.06;;;7.19;100.00
7433;BME280;32233;49.500;7.764;2023-03-20T04:10:24;98777.41;;;7.05;100.00
7433;BME280;32233;49.500;7.764;2023-03-20T04:12:51;98771.25;;;7.20;100.00
7433;BME280;32233;49.500;7.764;2023-03-20T04:15:18;98767.25;;;7.33;100.00
7433;BME280;32233;49.500;7.764;2023-03-20T04:17:46;98768.13;;;7.25;100.00
7433;BME280;32233;49.500;7.764;2023-03-20T04:20:14;98768.84;;;7.42;100.00
7433;BME280;32233;49.500;7.764;2023-03-20T04:22:41;98770.41;;;7.28;100.00
7433;BME280;32233;49.500;7.764;2023-03-20T04:25:20;98766.31;;;7.26;100.00
7433;BME280;32233;49.500;7.764;2023-03-20T04:27:50;98769.88;;;7.33;100.00
7433;BME280;32233;49.500;7.764;2023-03-20T04:30:31;98779.69;;;7.47;100.00
7433;BME280;32233;49.500;7.764;2023-03-20T04:33:16;98778.94;;;7.30;100.00
7433;BME280;32233;49.500;7.764;2023-03-20T04:36:03;98776.63;;;7.35;100.00
7433;BME280;32233;49.500;7.764;2023-03-20T04:38:29;98777.06;;;7.47;100.00
7433;BME280;32233;49.500;7.764;2023-03-20T04:40:57;98772.94;;;7.44;100.00
7433;BME280;32233;49.500;7.764;2023-03-20T04:43:24;98773.94;;;7.43;100.00
7433;BME280;32233;49.500;7.764;2023-03-20T04:45:51;98781.94;;;7.50;100.00
7433;BME280;32233;49.500;7.764;2023-03-20T04:48:17;98774.00;;;7.58;100.00
7433;BME280;32233;49.500;7.764;2023-03-20T04:50:44;98781.13;;;7.50;100.00
7433;BME280;32233;49.500;7.764;2023-03-20T04:53:19;98776.66;;;7.58;100.00
7433;BME280;32233;49.500;7.764;2023-03-20T04:55:49;98777.78;;;7.64;100.00
7433;BME280;32233;49.500;7.764;2023-03-20T04:58:16;98778.13;;;7.61;100.00
7433;BME280;32233;49.500;7.764;2023-03-20T05:00:43;98778.25;;;7.67;100.00
7433;BME280;32233;49.500;7.764;2023-03-20T05:03:10;98785.34;;;7.59;100.00
7433;BME280;32233;49.500;7.764;2023-03-20T05:05:38;98785.66;;;7.64;100.00
7433;BME280;32233;49.500;7.764;2023-03-20T05:08:05;98785.19;;;7.60;100.00
7433;BME280;32233;49.500;7.764;2023-03-20T05:10:34;98784.44;;;7.52;100.00
7433;BME280;32233;49.500;7.764;2023-03-20T05:13:07;98779.47;;;7.57;100.00
7433;BME280;32233;49.500;7.764;2023-03-20T05:15:48;98783.25;;;7.54;100.00
7433;BME280;32233;49.500;7.764;2023-03-20T05:18:24;98783.19;;;7.62;100.00
7433;BME280;32233;49.500;7.764;2023-03-20T05:21:09;98787.94;;;7.67;100.00
7433;BME280;32233;49.500;7.764;2023-03-20T05:24:14;98794.09;;;7.59;100.00
7433;BME280;32233;49.500;7.764;2023-03-20T05:27:07;98786.06;;;7.53;100.00
7433;BME280;32233;49.500;7.764;2023-03-20T05:29:53;98790.63;;;7.59;100.00
7433;BME280;32233;49.500;7.764;2023-03-20T05:32:41;98787.34;;;7.57;100.00
7433;BME280;32233;49.500;7.764;2023-03-20T05:35:27;98794.75;;;7.53;100.00
7433;BME280;32233;49.500;7.764;2023-03-20T05:38:22;98806.72;;;7.64;100.00
7433;BME280;32233;49.500;7.764;2023-03-20T05:41:02;98793.50;;;7.72;100.00
7433;BME280;32233;49.500;7.764;2023-03-20T05:44:02;98798.81;;;7.64;100.00
7433;BME280;32233;49.500;7.764;2023-03-20T05:46:48;98810.97;;;7.65;100.00
7433;BME280;32233;49.500;7.764;2023-03-20T05:49:26;98816.81;;;7.52;100.00
7433;BME280;32233;49.500;7.764;2023-03-20T05:52:19;98818.91;;;7.57;100.00
7433;BME280;32233;49.500;7.764;2023-03-20T05:55:25;98822.41;;;7.49;100.00
7433;BME280;32233;49.500;7.764;2023-03-20T05:58:18;98819.06;;;7.63;100.00
7433;BME280;32233;49.500;7.764;2023-03-20T06:01:00;98823.47;;;7.63;100.00
7433;BME280;32233;49.500;7.764;2023-03-20T06:03:48;98830.97;;;7.51;100.00
7433;BME280;32233;49.500;7.764;2023-03-20T06:06:24;98835.22;;;7.52;100.00
7433;BME280;32233;49.500;7.764;2023-03-20T06:08:51;98831.41;;;7.55;100.00
7433;BME280;32233;49.500;7.764;2023-03-20T06:11:18;98825.81;;;7.58;100.00
7433;BME280;32233;49.500;7.764;2023-03-20T06:13:45;98836.56;;;7.48;100.00
7433;BME280;32233;49.500;7.764;2023-03-20T06:16:11;98832.41;;;7.54;100.00
7433;BME280;32233;49.500;7.764;2023-03-20T06:18:38;98832.56;;;7.60;100.00
7433;BME280;32233;49.500;7.764;2023-03-20T06:21:06;98829.91;;;7.60;100.00
7433;BME280;32233;49.500;7.764;2023-03-20T06:23:33;98828.91;;;7.61;100.00
7433;BME280;32233;49.500;7.764;2023-03-20T06:26:00;98837.78;;;7.68;100.00
7433;BME280;32233;49.500;7.764;2023-03-20T06:28:30;98830.69;;;7.69;100.00
7433;BME280;32233;49.500;7.764;2023-03-20T06:31:03;98833.81;;;7.73;100.00
7433;BME280;32233;49.500;7.764;2023-03-20T06:33:29;98833.03;;;7.64;100.00
7433;BME280;32233;49.500;7.764;2023-03-20T06:35:58;98836.47;;;7.64;100.00
7433;BME280;32233;49.500;7.764;2023-03-20T06:38:28;98837.06;;;7.75;100.00
7433;BME280;32233;49.500;7.764;2023-03-20T06:40:55;98830.97;;;7.74;100.00
7433;BME280;32233;49.500;7.764;2023-03-20T06:43:22;98832.03;;;7.65;100.00
7433;BME280;32233;49.500;7.764;2023-03-20T06:45:51;98840.75;;;7.65;100.00
7433;BME280;32233;49.500;7.764;2023-03-20T06:48:24;98837.59;;;7.70;100.00
7433;BME280;32233;49.500;7.764;2023-03-20T06:50:51;98837.78;;;7.68;100.00
7433;BME280;32233;49.500;7.764;2023-03-20T06:53:21;98844.53;;;7.63;100.00
7433;BME280;32233;49.500;7.764;2023-03-20T06:56:17;98832.88;;;7.57;100.00
7433;BME280;32233;49.500;7.764;2023-03-20T06:58:44;98834.31;;;7.68;100.00
7433;BME280;32233;49.500;7.764;2023-03-20T07:01:12;98829.88;;;7.68;100.00
7433;BME280;32233;49.500;7.764;2023-03-20T07:03:40;98831.22;;;7.64;100.00
7433;BME280;32233;49.500;7.764;2023-03-20T07:06:08;98830.03;;;7.67;100.00
7433;BME280;32233;49.500;7.764;2023-03-20T07:08:38;98830.41;;;7.64;100.00
7433;BME280;32233;49.500;7.764;2023-03-20T07:11:05;98830.91;;;7.59;100.00
7433;BME280;32233;49.500;7.764;2023-03-20T07:13:32;98820.94;;;7.47;100.00
7433;BME280;32233;49.500;7.764;2023-03-20T07:16:07;98822.56;;;7.56;100.00
7433;BME280;32233;49.500;7.764;2023-03-20T07:18:38;98829.47;;;7.49;100.00
7433;BME280;32233;49.500;7.764;2023-03-20T07:21:06;98835.09;;;7.45;100.00
7433;BME280;32233;49.500;7.764;2023-03-20T07:23:34;98839.50;;;7.53;100.00
7433;BME280;32233;49.500;7.764;2023-03-20T07:26:02;98847.16;;;7.63;100.00
7433;BME280;32233;49.500;7.764;2023-03-20T07:28:29;98855.31;;;8.53;100.00
7433;BME280;32233;49.500;7.764;2023-03-20T07:31:18;98848.06;;;8.24;100.00
7433;BME280;32233;49.500;7.764;2023-03-20T07:33:46;98858.09;;;8.06;100.00
7433;BME280;32233;49.500;7.764;2023-03-20T07:36:12;98856.34;;;7.98;100.00
7433;BME280;32233;49.500;7.764;2023-03-20T07:38:40;98856.53;;;7.97;100.00
7433;BME280;32233;49.500;7.764;2023-03-20T07:41:09;98859.06;;;7.82;100.00
7433;BME280;32233;49.500;7.764;2023-03-20T07:43:39;98866.19;;;7.73;100.00
7433;BME280;32233;49.500;7.764;2023-03-20T07:46:24;98866.34;;;7.80;100.00
7433;BME280;32233;49.500;7.764;2023-03-20T07:48:54;98869.72;;;7.88;100.00
7433;BME280;32233;49.500;7.764;2023-03-20T07:51:24;98870.88;;;7.86;100.00
7433;BME280;32233;49.500;7.764;2023-03-20T07:53:50;98870.88;;;7.86;100.00
7433;BME280;32233;49.500;7.764;2023-03-20T07:56:17;98879.25;;;7.89;100.00
7433;BME280;32233;49.500;7.764;2023-03-20T07:58:43;98879.97;;;7.75;100.00
7433;BME280;32233;49.500;7.764;2023-03-20T08:01:10;98880.47;;;7.79;100.00
7433;BME280;32233;49.500;7.764;2023-03-20T08:03:36;98885.38;;;7.82;100.00
7433;BME280;32233;49.500;7.764;2023-03-20T08:06:05;98888.50;;;7.85;100.00
7433;BME280;32233;49.500;7.764;2023-03-20T08:08:34;98887.69;;;8.08;100.00
7433;BME280;32233;49.500;7.764;2023-03-20T08:11:01;98890.94;;;8.18;100.00
7433;BME280;32233;49.500;7.764;2023-03-20T08:13:27;98893.84;;;8.23;100.00
7433;BME280;32233;49.500;7.764;2023-03-20T08:15:54;98894.56;;;8.17;100.00
7433;BME280;32233;49.500;7.764;2023-03-20T08:18:21;98897.34;;;8.15;100.00
7433;BME280;32233;49.500;7.764;2023-03-20T08:20:47;98897.97;;;8.26;100.00
7433;BME280;32233;49.500;7.764;2023-03-20T08:23:16;98896.69;;;8.44;100.00
7433;BME280;32233;49.500;7.764;2023-03-20T08:25:50;98898.22;;;8.62;100.00
7433;BME280;32233;49.500;7.764;2023-03-20T08:28:17;98910.25;;;8.79;100.00
7433;BME280;32233;49.500;7.764;2023-03-20T08:30:44;98911.06;;;8.80;100.00
7433;BME280;32233;49.500;7.764;2023-03-20T08:33:10;98911.00;;;8.88;100.00
7433;BME280;32233;49.500;7.764;2023-03-20T08:35:37;98921.66;;;8.95;100.00
7433;BME280;32233;49.500;7.764;2023-03-20T08:38:04;98919.00;;;8.95;100.00
7433;BME280;32233;49.500;7.764;2023-03-20T08:40:31;98912.63;;;8.89;100.00
7433;BME280;32233;49.500;7.764;2023-03-20T08:42:57;98913.28;;;8.91;100.00
7433;BME280;32233;49.500;7.764;2023-03-20T08:45:24;98917.66;;;8.99;100.00
7433;BME280;32233;49.500;7.764;2023-03-20T08:47:51;98922.88;;;8.84;100.00
7433;BME280;32233;49.500;7.764;2023-03-20T08:50:18;98917.22;;;8.72;100.00
7433;BME280;32233;49.500;7.764;2023-03-20T08:52:45;98916.94;;;8.67;100.00
7433;BME280;32233;49.500;7.764;2023-03-20T08:55:13;98921.22;;;8.68;100.00
7433;BME280;32233;49.500;7.764;2023-03-20T08:57:40;98923.78;;;8.76;100.00
7433;BME280;32233;49.500;7.764;2023-03-20T09:00:10;98925.88;;;8.81;100.00
7433;BME280;32233;49.500;7.764;2023-03-20T09:02:38;98927.81;;;9.02;100.00
7433;BME280;32233;49.500;7.764;2023-03-20T09:05:05;98929.88;;;9.14;100.00
7433;BME280;32233;49.500;7.764;2023-03-20T09:07:32;98927.50;;;9.49;97.16
7433;BME280;32233;49.500;7.764;2023-03-20T09:09:59;98919.81;;;10.20;96.36
7433;BME280;32233;49.500;7.764;2023-03-20T09:12:26;98915.63;;;10.90;93.03
7433;BME280;32233;49.500;7.764;2023-03-20T09:14:53;98920.66;;;11.06;87.80
7433;BME280;32233;49.500;7.764;2023-03-20T09:17:19;98916.66;;;11.58;85.93
7433;BME280;32233;49.500;7.764;2023-03-20T09:19:46;98918.19;;;11.81;83.60
7433;BME280;32233;49.500;7.764;2023-03-20T09:22:13;98917.38;;;12.48;78.35
7433;BME280;32233;49.500;7.764;2023-03-20T09:24:40;98921.09;;;12.54;74.12
7433;BME280;32233;49.500;7.764;2023-03-20T09:27:07;98923.13;;;12.45;76.97
7433;BME280;32233;49.500;7.764;2023-03-20T09:29:33;98924.72;;;12.33;75.35
7433;BME280;32233;49.500;7.764;2023-03-20T09:32:00;98928.31;;;12.12;78.01
7433;BME280;32233;49.500;7.764;2023-03-20T09:34:27;98929.31;;;11.98;76.76
7433;BME280;32233;49.500;7.764;2023-03-20T09:36:54;98930.81;;;11.72;77.64
7433;BME280;32233;49.500;7.764;2023-03-20T09:39:21;98940.41;;;11.10;78.99
7433;BME280;32233;49.500;7.764;2023-03-20T09:41:48;98937.72;;;11.38;78.75
7433;BME280;32233;49.500;7.764;2023-03-20T09:44:53;98941.25;;;12.42;73.58
7433;BME280;32233;49.500;7.764;2023-03-20T09:47:32;98933.72;;;12.65;72.08
7433;BME280;32233;49.500;7.764;2023-03-20T09:53:03;98940.28;;;11.95;71.84
7433;BME280;32233;49.500;7.764;2023-03-20T09:55:35;98945.19;;;11.98;71.47
7433;BME280;32233;49.500;7.764;2023-03-20T09:58:25;98936.28;;;12.19;71.40
7433;BME280;32233;49.500;7.764;2023-03-20T10:00:55;98937.19;;;13.52;66.75
7433;BME280;32233;49.500;7.764;2023-03-20T10:03:27;98925.13;;;13.43;63.05
7433;BME280;32233;49.500;7.764;2023-03-20T10:06:03;98927.59;;;12.98;67.39
7433;BME280;32233;49.500;7.764;2023-03-20T10:08:35;98933.53;;;12.53;67.00
7433;BME280;32233;49.500;7.764;2023-03-20T10:11:19;98932.16;;;11.61;69.33
7433;BME280;32233;49.500;7.764;2023-03-20T10:17:07;98929.16;;;12.19;67.29
7433;BME280;32233;49.500;7.764;2023-03-20T10:19:30;98933.06;;;12.36;68.43
7433;BME280;32233;49.500;7.764;2023-03-20T10:22:14;98925.38;;;12.81;66.14
7433;BME280;32233;49.500;7.764;2023-03-20T10:24:54;98928.03;;;12.81;65.74
7433;BME280;32233;49.500;7.764;2023-03-20T10:27:29;98926.38;;;12.94;63.16
7433;BME280;32233;49.500;7.764;2023-03-20T10:33:11;98921.69;;;12.49;64.87
7433;BME280;32233;49.500;7.764;2023-03-20T10:35:52;98931.06;;;12.52;63.10
7433;BME280;32233;49.500;7.764;2023-03-20T10:38:31;98920.19;;;12.20;64.65
7433;BME280;32233;49.500;7.764;2023-03-20T10:41:03;98910.69;;;12.59;64.88
7433;BME280;32233;49.500;7.764;2023-03-20T10:43:35;98919.84;;;12.56;62.53
7433;BME280;32233;49.500;7.764;2023-03-20T10:46:16;98918.44;;;12.54;60.28
7433;BME280;32233;49.500;7.764;2023-03-20T10:48:49;98916.59;;;12.81;62.86
7433;BME280;32233;49.500;7.764;2023-03-20T10:51:21;98922.31;;;13.11;62.37
7433;BME280;32233;49.500;7.764;2023-03-20T10:53:51;98914.34;;;13.04;60.86
7433;BME280;32233;49.500;7.764;2023-03-20T10:56:27;98923.16;;;12.98;61.21
7433;BME280;32233;49.500;7.764;2023-03-20T10:59:02;98917.59;;;13.20;60.42
7433;BME280;32233;49.500;7.764;2023-03-20T11:01:29;98921.28;;;13.19;57.42
7433;BME280;32233;49.500;7.764;2023-03-20T11:03:55;98918.44;;;12.74;59.88
7433;BME280;32233;49.500;7.764;2023-03-20T11:06:26;98916.38;;;12.69;60.51
7433;BME280;32233;49.500;7.764;2023-03-20T11:08:54;98914.78;;;12.88;58.99
7433;BME280;32233;49.500;7.764;2023-03-20T11:11:26;98910.50;;;12.87;58.23
7433;BME280;32233;49.500;7.764;2023-03-20T11:13:53;98901.50;;;12.95;55.50
7433;BME280;32233;49.500;7.764;2023-03-20T11:16:29;98896.97;;;13.22;54.48
7433;BME280;32233;49.500;7.764;2023-03-20T11:19:04;98906.94;;;13.53;49.42
7433;BME280;32233;49.500;7.764;2023-03-20T11:21:31;98901.28;;;13.87;50.72
7433;BME280;32233;49.500;7.764;2023-03-20T11:24:00;98901.41;;;14.06;49.29
7433;BME280;32233;49.500;7.764;2023-03-20T11:26:40;98905.88;;;14.12;47.13
7433;BME280;32233;49.500;7.764;2023-03-20T11:29:18;98902.16;;;13.75;47.09
7433;BME280;32233;49.500;7.764;2023-03-20T11:31:48;98899.47;;;13.81;49.41
7433;BME280;32233;49.500;7.764;2023-03-20T11:36:54;98898.03;;;13.92;49.06
7433;BME280;32233;49.500;7.764;2023-03-20T11:39:34;98895.13;;;13.94;47.53
7433;BME280;32233;49.500;7.764;2023-03-20T11:42:03;98900.31;;;13.75;47.36
7433;BME280;32233;49.500;7.764;2023-03-20T11:44:33;98894.22;;;14.13;48.46
7433;BME280;32233;49.500;7.764;2023-03-20T11:47:17;98892.44;;;14.38;48.50
7433;BME280;32233;49.500;7.764;2023-03-20T11:49:53;98893.50;;;13.93;49.87
7433;BME280;32233;49.500;7.764;2023-03-20T11:52:23;98903.66;;;13.57;49.81
7433;BME280;32233;49.500;7.764;2023-03-20T11:54:53;98898.00;;;13.21;50.68
7433;BME280;32233;49.500;7.764;2023-03-20T11:57:40;98895.56;;;13.32;51.83
7433;BME280;32233;49.500;7.764;2023-03-20T12:02:41;98890.13;;;13.66;51.02
7433;BME280;32233;49.500;7.764;2023-03-20T12:05:33;98885.91;;;14.34;50.35
7433;BME280;32233;49.500;7.764;2023-03-20T12:10:35;98886.34;;;13.93;47.91
7433;BME280;32233;49.500;7.764;2023-03-20T12:13:18;98882.66;;;13.43;47.04
7433;BME280;32233;49.500;7.764;2023-03-20T12:15:51;98872.09;;;13.81;46.38
7433;BME280;32233;49.500;7.764;2023-03-20T12:18:33;98870.69;;;14.73;45.48
7433;BME280;32233;49.500;7.764;2023-03-20T12:21:03;98868.69;;;14.69;42.86
7433;BME280;32233;49.500;7.764;2023-03-20T12:23:45;98865.25;;;15.85;40.55
7433;BME280;32233;49.500;7.764;2023-03-20T12:26:19;98863.53;;;15.91;39.08
7433;BME280;32233;49.500;7.764;2023-03-20T12:28:55;98852.81;;;15.79;39.67
7433;BME280;32233;49.500;7.764;2023-03-20T12:31:43;98851.50;;;15.15;41.95
7433;BME280;32233;49.500;7.764;2023-03-20T12:34:58;98850.13;;;14.87;43.06
7433;BME280;32233;49.500;7.764;2023-03-20T12:37:08;98850.63;;;15.88;42.88
7433;BME280;32233;49.500;7.764;2023-03-20T12:39:48;98848.38;;;16.33;40.95
7433;BME280;32233;49.500;7.764;2023-03-20T12:42:29;98842.31;;;16.26;41.31
7433;BME280;32233;49.500;7.764;2023-03-20T12:45:10;98845.50;;;15.38;43.19
7433;BME280;32233;49.500;7.764;2023-03-20T12:50:33;98848.78;;;14.78;44.50
7433;BME280;32233;49.500;7.764;2023-03-20T12:58:40;98833.25;;;14.50;44.91
7433;BME280;32233;49.500;7.764;2023-03-20T13:01:15;98836.56;;;14.13;44.82
7433;BME280;32233;49.500;7.764;2023-03-20T13:12:18;98834.50;;;13.12;48.41
7433;BME280;32233;49.500;7.764;2023-03-20T13:15:33;98819.38;;;13.26;47.00
7433;BME280;32233;49.500;7.764;2023-03-20T13:20:51;98819.84;;;13.03;48.74
7433;BME280;32233;49.500;7.764;2023-03-20T13:29:13;98811.13;;;12.70;48.91
7433;BME280;32233;49.500;7.764;2023-03-20T13:32:14;98813.16;;;12.74;48.40
7433;BME280;32233;49.500;7.764;2023-03-20T13:37:29;98816.25;;;12.58;49.33
7433;BME280;32233;49.500;7.764;2023-03-20T13:40:05;98815.22;;;12.52;49.47
7433;BME280;32233;49.500;7.764;2023-03-20T13:42:57;98810.09;;;12.64;49.24
7433;BME280;32233;49.500;7.764;2023-03-20T13:45:37;98808.25;;;12.91;48.32
7433;BME280;32233;49.500;7.764;2023-03-20T13:51:00;98797.22;;;12.94;46.53
7433;BME280;32233;49.500;7.764;2023-03-20T13:53:48;98794.81;;;12.53;45.99
7433;BME280;32233;49.500;7.764;2023-03-20T13:59:51;98794.78;;;12.79;47.63
7433;BME280;32233;49.500;7.764;2023-03-20T14:04:43;98787.41;;;12.81;46.68
7433;BME280;32233;49.500;7.764;2023-03-20T14:07:43;98782.34;;;12.86;47.62
7433;BME280;32233;49.500;7.764;2023-03-20T14:13:04;98784.41;;;12.58;48.28
7433;BME280;32233;49.500;7.764;2023-03-20T14:15:34;98784.59;;;12.63;48.26
7433;BME280;32233;49.500;7.764;2023-03-20T14:18:04;98790.34;;;12.47;48.00
7433;BME280;32233;49.500;7.764;2023-03-20T14:20:37;98787.28;;;12.30;49.48
7433;BME280;32233;49.500;7.764;2023-03-20T14:23:05;98788.09;;;12.24;49.47
7433;BME280;32233;49.500;7.764;2023-03-20T14:25:35;98791.34;;;12.06;49.28
7433;BME280;32233;49.500;7.764;2023-03-20T14:30:45;98801.50;;;11.89;47.21
7433;BME280;32233;49.500;7.764;2023-03-20T14:47:15;98791.34;;;11.38;49.92
7433;BME280;32233;49.500;7.764;2023-03-20T14:49:45;98798.53;;;11.57;47.55
7433;BME280;32233;49.500;7.764;2023-03-20T14:52:26;98793.22;;;11.51;47.54
7433;BME280;32233;49.500;7.764;2023-03-20T14:55:13;98796.06;;;11.49;47.91
7433;BME280;32233;49.500;7.764;2023-03-20T14:57:41;98785.94;;;11.59;47.67
7433;BME280;32233;49.500;7.764;2023-03-20T15:00:24;98782.06;;;11.62;48.01
7433;BME280;32233;49.500;7.764;2023-03-20T15:02:54;98788.59;;;11.66;48.05
7433;BME280;32233;49.500;7.764;2023-03-20T15:05:34;98784.72;;;11.69;47.10
7433;BME280;32233;49.500;7.764;2023-03-20T15:08:11;98783.47;;;11.58;47.20
7433;BME280;32233;49.500;7.764;2023-03-20T15:10:55;98775.66;;;11.36;49.02
7433;BME280;32233;49.500;7.764;2023-03-20T15:13:23;98776.22;;;11.25;49.65
7433;BME280;32233;49.500;7.764;2023-03-20T15:18:19;98773.59;;;10.84;49.73
7433;BME280;32233;49.500;7.764;2023-03-20T15:20:47;98784.03;;;10.64;49.58
7433;BME280;32233;49.500;7.764;2023-03-20T15:23:14;98778.66;;;10.79;51.20
7433;BME280;32233;49.500;7.764;2023-03-20T15:25:43;98781.09;;;10.80;51.70
7433;BME280;32233;49.500;7.764;2023-03-20T15:28:16;98776.16;;;10.71;51.39